sensor_id;sensor_type;location;lat;lon;timestamp;pressure;altitude;pressure_sealevel;temperature;humidity
6532;BME280;3299;42.004;24.868;2023-02-21T00:00:57;98528.31;;;10.79;41.71
6532;BME280;3299;42.004;24.868;2023-02-21T00:03:41;98403.47;;;10.01;41.99
6532;BME280;3299;42.004;24.868;2023-02-21T00:06:25;98442.81;;;10.31;41.91
6532;BME280;3299;42.004;24.868;2023-02-21T00:09:09;98495.81;;;10.63;41.13
6532;BME280;3299;42.004;24.868;2023-02-21T00:11:53;98509.69;;;10.87;40.96
6532;BME280;3299;42.004;24.868;2023-02-21T00:14:37;98504.09;;;10.80;40.76
6532;BME280;3299;42.004;24.868;2023-02-21T00:17:21;98441.38;;;10.52;40.78
6532;BME280;3299;42.004;24.868;2023-02-21T00:20:06;98461.84;;;10.55;40.85
6532;BME280;3299;42.004;24.868;2023-02-21T00:22:50;98405.28;;;10.25;40.84
6532;BME280;3299;42.004;24.868;2023-02-21T00:25:34;98441.78;;;10.46;40.84
6532;BME280;3299;42.004;24.868;2023-02-21T00:28:18;98505.53;;;10.72;40.85
6532;BME280;3299;42.004;24.868;2023-02-21T00:31:02;98459.59;;;10.63;40.97
6532;BME280;3299;42.004;24.868;2023-02-21T00:33:46;98449.66;;;10.57;40.74
6532;BME280;3299;42.004;24.868;2023-02-21T00:36:29;98450.50;;;10.45;41.34
6532;BME280;3299;42.004;24.868;2023-02-21T00:39:14;98467.44;;;10.36;41.88
6532;BME280;3299;42.004;24.868;2023-02-21T00:41:57;98440.66;;;9.98;42.43
6532;BME280;3299;42.004;24.868;2023-02-21T00:44:41;98438.25;;;9.83;42.97
6532;BME280;3299;42.004;24.868;2023-02-21T00:47:25;98470.53;;;10.29;42.79
6532;BME280;3299;42.004;24.868;2023-02-21T00:50:09;98474.06;;;10.40;42.14
6532;BME280;3299;42.004;24.868;2023-02-21T00:52:53;98396.25;;;10.31;41.60
6532;BME280;3299;42.004;24.868;2023-02-21T00:55:37;98389.44;;;10.42;41.29
6532;BME280;3299;42.004;24.868;2023-02-21T00:58:21;98416.13;;;10.68;41.04
6532;BME280;3299;42.004;24.868;2023-02-21T01:01:06;98460.53;;;11.10;40.93
6532;BME280;3299;42.004;24.868;2023-02-21T01:03:49;98435.28;;;11.14;40.62
6532;BME280;3299;42.004;24.868;2023-02-21T01:06:33;98391.41;;;11.00;40.44
6532;BME280;3299;42.004;24.868;2023-02-21T01:09:17;98450.75;;;11.39;40.29
6532;BME280;3299;42.004;24.868;2023-02-21T01:12:01;98375.94;;;10.87;40.22
6532;BME280;3299;42.004;24.868;2023-02-21T01:14:45;98397.56;;;11.22;39.54
6532;BME280;3299;42.004;24.868;2023-02-21T01:17:29;98400.91;;;11.35;39.45
6532;BME280;3299;42.004;24.868;2023-02-21T01:20:13;98380.13;;;11.24;39.31
6532;BME280;3299;42.004;24.868;2023-02-21T01:22:57;98438.66;;;11.63;39.39
6532;BME280;3299;42.004;24.868;2023-02-21T01:25:41;98431.91;;;11.37;39.43
6532;BME280;3299;42.004;24.868;2023-02-21T01:28:25;98384.41;;;10.89;39.76
6532;BME280;3299;42.004;24.868;2023-02-21T01:31:09;98421.34;;;11.27;39.74
6532;BME280;3299;42.004;24.868;2023-02-21T01:33:53;98368.72;;;11.03;39.42
6532;BME280;3299;42.004;24.868;2023-02-21T01:36:40;98377.31;;;11.04;39.42
6532;BME280;3299;42.004;24.868;2023-02-21T01:39:24;98368.41;;;11.08;39.22
6532;BME280;3299;42.004;24.868;2023-02-21T01:42:09;98406.22;;;11.34;39.00
6532;BME280;3299;42.004;24.868;2023-02-21T01:45:39;98419.06;;;11.35;39.42
6532;BME280;3299;42.004;24.868;2023-02-21T01:48:25;98414.41;;;11.28;39.13
6532;BME280;3299;42.004;24.868;2023-02-21T01:51:12;98334.50;;;10.87;38.86
6532;BME280;3299;42.004;24.868;2023-02-21T01:53:57;98332.63;;;10.89;38.95
6532;BME280;3299;42.004;24.868;2023-02-21T01:56:41;98350.84;;;10.88;38.95
6532;BME280;3299;42.004;24.868;2023-02-21T01:59:25;98390.09;;;11.18;39.15
6532;BME280;3299;42.004;24.868;2023-02-21T02:05:10;98363.59;;;10.91;39.26
6532;BME280;3299;42.004;24.868;2023-02-21T02:07:54;98388.63;;;11.03;39.50
6532;BME280;3299;42.004;24.868;2023-02-21T02:10:40;98348.84;;;10.68;39.72
6532;BME280;3299;42.004;24.868;2023-02-21T02:13:27;98396.66;;;11.11;40.05
6532;BME280;3299;42.004;24.868;2023-02-21T02:18:33;98382.31;;;11.18;40.15
6532;BME280;3299;42.004;24.868;2023-02-21T02:32:36;98359.72;;;10.96;40.92
6532;BME280;3299;42.004;24.868;2023-02-21T02:37:51;98371.59;;;11.11;40.86
6532;BME280;3299;42.004;24.868;2023-02-21T02:40:34;98295.00;;;10.96;39.98
6532;BME280;3299;42.004;24.868;2023-02-21T02:48:47;98297.91;;;11.15;40.31
6532;BME280;3299;42.004;24.868;2023-02-21T02:51:15;98293.25;;;11.20;39.31
6532;BME280;3299;42.004;24.868;2023-02-21T02:53:40;98296.56;;;11.33;39.62
6532;BME280;3299;42.004;24.868;2023-02-21T02:56:13;98303.34;;;11.47;38.57
6532;BME280;3299;42.004;24.868;2023-02-21T02:58:53;98287.31;;;11.42;38.18
6532;BME280;3299;42.004;24.868;2023-02-21T03:13:06;98227.91;;;11.17;39.15
6532;BME280;3299;42.004;24.868;2023-02-21T03:15:47;98335.28;;;11.82;40.11
6532;BME280;3299;42.004;24.868;2023-02-21T03:18:25;98319.13;;;11.78;41.04
6532;BME280;3299;42.004;24.868;2023-02-21T03:20:56;98267.91;;;11.47;41.57
6532;BME280;3299;42.004;24.868;2023-02-21T03:23:27;98257.84;;;11.32;40.46
6532;BME280;3299;42.004;24.868;2023-02-21T03:25:56;98324.91;;;11.82;39.46
6532;BME280;3299;42.004;24.868;2023-02-21T03:28:24;98337.31;;;12.00;38.86
6532;BME280;3299;42.004;24.868;2023-02-21T03:30:52;98282.25;;;11.75;38.14
6532;BME280;3299;42.004;24.868;2023-02-21T03:33:18;98286.59;;;11.74;37.86
6532;BME280;3299;42.004;24.868;2023-02-21T03:35:44;98319.53;;;11.96;37.53
6532;BME280;3299;42.004;24.868;2023-02-21T03:38:10;98310.09;;;11.84;37.63
6532;BME280;3299;42.004;24.868;2023-02-21T03:40:35;98334.03;;;11.98;37.70
6532;BME280;3299;42.004;24.868;2023-02-21T03:43:03;98335.53;;;11.79;37.58
6532;BME280;3299;42.004;24.868;2023-02-21T03:45:31;98329.34;;;11.69;37.93
6532;BME280;3299;42.004;24.868;2023-02-21T03:47:57;98343.44;;;11.88;38.61
6532;BME280;3299;42.004;24.868;2023-02-21T03:50:22;98324.88;;;11.71;38.49
6532;BME280;3299;42.004;24.868;2023-02-21T03:52:47;98295.25;;;11.51;38.98
6532;BME280;3299;42.004;24.868;2023-02-21T03:55:13;98286.03;;;11.47;39.05
6532;BME280;3299;42.004;24.868;2023-02-21T03:57:38;98296.31;;;11.49;39.75
6532;BME280;3299;42.004;24.868;2023-02-21T04:00:04;98260.34;;;11.44;39.31
6532;BME280;3299;42.004;24.868;2023-02-21T04:02:29;98286.81;;;11.60;40.18
6532;BME280;3299;42.004;24.868;2023-02-21T04:04:55;98302.31;;;11.84;39.94
6532;BME280;3299;42.004;24.868;2023-02-21T04:07:20;98323.41;;;12.01;39.77
6532;BME280;3299;42.004;24.868;2023-02-21T04:09:47;98338.16;;;12.12;39.92
6532;BME280;3299;42.004;24.868;2023-02-21T04:12:13;98293.34;;;11.88;40.26
6532;BME280;3299;42.004;24.868;2023-02-21T04:14:38;98275.75;;;11.80;40.88
6532;BME280;3299;42.004;24.868;2023-02-21T04:17:04;98319.78;;;12.15;41.16
6532;BME280;3299;42.004;24.868;2023-02-21T04:19:30;98329.56;;;12.22;40.77
6532;BME280;3299;42.004;24.868;2023-02-21T04:21:55;98266.94;;;11.72;41.00
6532;BME280;3299;42.004;24.868;2023-02-21T04:24:21;98315.06;;;12.09;40.92
6532;BME280;3299;42.004;24.868;2023-02-21T04:26:46;98332.50;;;12.18;40.79
6532;BME280;3299;42.004;24.868;2023-02-21T04:29:12;98307.63;;;12.04;40.91
6532;BME280;3299;42.004;24.868;2023-02-21T04:31:37;98315.75;;;12.00;42.43
6532;BME280;3299;42.004;24.868;2023-02-21T04:34:03;98276.84;;;11.78;42.11
6532;BME280;3299;42.004;24.868;2023-02-21T04:36:28;98278.50;;;11.79;42.05
6532;BME280;3299;42.004;24.868;2023-02-21T04:38:54;98328.22;;;11.95;42.55
6532;BME280;3299;42.004;24.868;2023-02-21T04:41:20;98327.63;;;11.91;43.00
6532;BME280;3299;42.004;24.868;2023-02-21T04:43:45;98308.03;;;11.65;43.03
6532;BME280;3299;42.004;24.868;2023-02-21T04:46:12;98285.97;;;11.60;42.96
6532;BME280;3299;42.004;24.868;2023-02-21T04:48:44;98298.28;;;11.56;43.25
6532;BME280;3299;42.004;24.868;2023-02-21T04:51:11;98327.31;;;11.61;43.34
6532;BME280;3299;42.004;24.868;2023-02-21T04:53:36;98348.00;;;11.74;43.40
6532;BME280;3299;42.004;24.868;2023-02-21T04:56:02;98301.69;;;11.46;42.50
6532;BME280;3299;42.004;24.868;2023-02-21T04:58:28;98295.06;;;11.42;43.12
6532;BME280;3299;42.004;24.868;2023-02-21T05:00:53;98298.34;;;11.33;43.38
6532;BME280;3299;42.004;24.868;2023-02-21T05:03:19;98352.59;;;11.58;43.54
6532;BME280;3299;42.004;24.868;2023-02-21T05:05:44;98339.25;;;11.40;43.45
6532;BME280;3299;42.004;24.868;2023-02-21T05:08:10;98338.59;;;11.26;43.96
6532;BME280;3299;42.004;24.868;2023-02-21T05:10:35;98343.19;;;11.33;44.35
6532;BME280;3299;42.004;24.868;2023-02-21T05:13:00;98353.69;;;11.32;44.52
6532;BME280;3299;42.004;24.868;2023-02-21T05:15:26;98296.16;;;10.92;44.30
6532;BME280;3299;42.004;24.868;2023-02-21T05:17:51;98345.88;;;11.21;44.57
6532;BME280;3299;42.004;24.868;2023-02-21T05:20:17;98349.09;;;11.12;44.56
6532;BME280;3299;42.004;24.868;2023-02-21T05:22:42;98279.25;;;10.76;44.99
6532;BME280;3299;42.004;24.868;2023-02-21T05:25:18;98249.44;;;10.47;45.64
6532;BME280;3299;42.004;24.868;2023-02-21T05:27:46;98349.34;;;11.09;45.79
6532;BME280;3299;42.004;24.868;2023-02-21T05:30:13;98343.75;;;11.02;45.58
6532;BME280;3299;42.004;24.868;2023-02-21T05:32:39;98298.00;;;10.67;45.52
6532;BME280;3299;42.004;24.868;2023-02-21T05:35:06;98297.31;;;10.65;46.01
6532;BME280;3299;42.004;24.868;2023-02-21T05:37:31;98309.47;;;10.75;45.88
6532;BME280;3299;42.004;24.868;2023-02-21T05:39:58;98347.56;;;10.86;45.19
6532;BME280;3299;42.004;24.868;2023-02-21T05:42:23;98305.41;;;10.60;44.71
6532;BME280;3299;42.004;24.868;2023-02-21T05:44:49;98336.63;;;10.70;44.30
6532;BME280;3299;42.004;24.868;2023-02-21T05:47:15;98370.59;;;10.65;43.56
6532;BME280;3299;42.004;24.868;2023-02-21T05:49:41;98381.13;;;10.62;44.08
6532;BME280;3299;42.004;24.868;2023-02-21T05:52:09;98372.25;;;10.54;44.88
6532;BME280;3299;42.004;24.868;2023-02-21T05:54:35;98361.69;;;10.57;45.33
6532;BME280;3299;42.004;24.868;2023-02-21T05:57:00;98324.19;;;10.26;44.09
6532;BME280;3299;42.004;24.868;2023-02-21T05:59:26;98362.34;;;10.35;44.54
6532;BME280;3299;42.004;24.868;2023-02-21T06:01:51;98382.50;;;10.43;45.10
6532;BME280;3299;42.004;24.868;2023-02-21T06:04:16;98389.84;;;10.49;45.39
6532;BME280;3299;42.004;24.868;2023-02-21T06:06:42;98367.09;;;10.41;46.02
6532;BME280;3299;42.004;24.868;2023-02-21T06:09:09;98383.00;;;10.48;45.35
6532;BME280;3299;42.004;24.868;2023-02-21T06:11:36;98336.41;;;10.12;46.77
6532;BME280;3299;42.004;24.868;2023-02-21T06:14:04;98395.84;;;10.49;46.47
6532;BME280;3299;42.004;24.868;2023-02-21T06:16:34;98332.97;;;10.24;47.51
6532;BME280;3299;42.004;24.868;2023-02-21T06:19:00;98342.56;;;10.47;46.81
6532;BME280;3299;42.004;24.868;2023-02-21T06:21:25;98379.25;;;10.77;47.20
6532;BME280;3299;42.004;24.868;2023-02-21T06:23:50;98377.16;;;10.82;47.07
6532;BME280;3299;42.004;24.868;2023-02-21T06:26:17;98287.47;;;10.34;47.37
6532;BME280;3299;42.004;24.868;2023-02-21T06:28:43;98333.31;;;10.68;47.12
6532;BME280;3299;42.004;24.868;2023-02-21T06:31:08;98289.03;;;10.60;47.42
6532;BME280;3299;42.004;24.868;2023-02-21T06:33:37;98333.84;;;10.96;46.69
6532;BME280;3299;42.004;24.868;2023-02-21T06:36:07;98375.81;;;11.36;44.98
6532;BME280;3299;42.004;24.868;2023-02-21T06:38:33;98377.81;;;11.56;45.17
6532;BME280;3299;42.004;24.868;2023-02-21T06:40:59;98372.06;;;11.87;44.45
6532;BME280;3299;42.004;24.868;2023-02-21T06:43:25;98334.81;;;11.88;43.62
6532;BME280;3299;42.004;24.868;2023-02-21T06:45:51;98324.91;;;11.82;42.99
6532;BME280;3299;42.004;24.868;2023-02-21T06:48:16;98385.47;;;12.15;42.01
6532;BME280;3299;42.004;24.868;2023-02-21T06:50:42;98321.63;;;11.56;42.24
6532;BME280;3299;42.004;24.868;2023-02-21T06:53:08;98323.78;;;11.62;42.49
6532;BME280;3299;42.004;24.868;2023-02-21T06:55:33;98376.72;;;12.05;42.56
6532;BME280;3299;42.004;24.868;2023-02-21T06:57:58;98379.91;;;12.20;42.01
6532;BME280;3299;42.004;24.868;2023-02-21T07:00:24;98322.53;;;11.68;41.63
6532;BME280;3299;42.004;24.868;2023-02-21T07:02:51;98384.34;;;11.96;42.10
6532;BME280;3299;42.004;24.868;2023-02-21T07:05:17;98366.50;;;11.91;42.22
6532;BME280;3299;42.004;24.868;2023-02-21T07:07:43;98378.69;;;12.02;41.83
6532;BME280;3299;42.004;24.868;2023-02-21T07:10:08;98351.09;;;11.90;41.68
6532;BME280;3299;42.004;24.868;2023-02-21T07:12:34;98393.38;;;12.25;41.61
6532;BME280;3299;42.004;24.868;2023-02-21T07:14:59;98367.41;;;12.14;41.62
6532;BME280;3299;42.004;24.868;2023-02-21T07:17:25;98337.44;;;11.99;41.55
6532;BME280;3299;42.004;24.868;2023-02-21T07:19:50;98376.38;;;12.32;41.44
6532;BME280;3299;42.004;24.868;2023-02-21T07:22:16;98330.84;;;12.06;41.90
6532;BME280;3299;42.004;24.868;2023-02-21T07:24:43;98281.09;;;11.90;41.70
6532;BME280;3299;42.004;24.868;2023-02-21T07:27:08;98374.88;;;12.62;41.24
6532;BME280;3299;42.004;24.868;2023-02-21T07:29:34;98369.53;;;12.64;41.50
6532;BME280;3299;42.004;24.868;2023-02-21T07:31:59;98321.19;;;12.52;41.38
6532;BME280;3299;42.004;24.868;2023-02-21T07:34:24;98317.63;;;12.75;41.14
6532;BME280;3299;42.004;24.868;2023-02-21T07:36:50;98271.63;;;12.66;40.77
6532;BME280;3299;42.004;24.868;2023-02-21T07:39:15;98359.41;;;13.36;40.32
6532;BME280;3299;42.004;24.868;2023-02-21T07:41:41;98283.34;;;12.92;40.31
6532;BME280;3299;42.004;24.868;2023-02-21T07:44:07;98341.09;;;13.38;40.06
6532;BME280;3299;42.004;24.868;2023-02-21T07:46:33;98322.66;;;13.41;39.45
6532;BME280;3299;42.004;24.868;2023-02-21T07:48:59;98366.69;;;13.74;39.70
6532;BME280;3299;42.004;24.868;2023-02-21T07:51:28;98367.25;;;13.77;39.94
6532;BME280;3299;42.004;24.868;2023-02-21T07:53:54;98299.66;;;13.57;39.37
6532;BME280;3299;42.004;24.868;2023-02-21T07:56:20;98297.00;;;13.68;39.47
6532;BME280;3299;42.004;24.868;2023-02-21T07:58:45;98332.53;;;13.99;39.29
6532;BME280;3299;42.004;24.868;2023-02-21T08:01:11;98297.03;;;13.98;38.83
6532;BME280;3299;42.004;24.868;2023-02-21T08:03:36;98343.44;;;14.34;38.62
6532;BME280;3299;42.004;24.868;2023-02-21T08:06:02;98310.88;;;14.19;38.62
6532;BME280;3299;42.004;24.868;2023-02-21T08:08:27;98292.59;;;14.30;38.21
6532;BME280;3299;42.004;24.868;2023-02-21T08:10:53;98343.69;;;14.70;37.95
6532;BME280;3299;42.004;24.868;2023-02-21T08:13:18;98285.25;;;14.44;37.73
6532;BME280;3299;42.004;24.868;2023-02-21T08:15:44;98347.09;;;15.01;37.87
6532;BME280;3299;42.004;24.868;2023-02-21T08:18:18;98348.91;;;15.19;37.27
6532;BME280;3299;42.004;24.868;2023-02-21T08:20:45;98256.81;;;14.71;37.76
6532;BME280;3299;42.004;24.868;2023-02-21T08:23:11;98254.38;;;14.89;37.18
6532;BME280;3299;42.004;24.868;2023-02-21T08:25:37;98297.66;;;15.39;36.91
6532;BME280;3299;42.004;24.868;2023-02-21T08:28:02;98281.81;;;15.50;36.59
6532;BME280;3299;42.004;24.868;2023-02-21T08:30:28;98286.50;;;15.75;36.08
6532;BME280;3299;42.004;24.868;2023-02-21T08:32:53;98271.06;;;15.91;36.27
6532;BME280;3299;42.004;24.868;2023-02-21T08:35:20;98285.97;;;16.17;35.82
6532;BME280;3299;42.004;24.868;2023-02-21T08:37:47;98259.97;;;16.25;35.58
6532;BME280;3299;42.004;24.868;2023-02-21T08:40:13;98247.00;;;16.33;35.33
6532;BME280;3299;42.004;24.868;2023-02-21T08:42:40;98257.94;;;16.56;34.57
6532;BME280;3299;42.004;24.868;2023-02-21T08:45:06;98282.03;;;16.94;33.05
6532;BME280;3299;42.004;24.868;2023-02-21T08:47:34;98285.47;;;17.30;32.42
6532;BME280;3299;42.004;24.868;2023-02-21T08:50:00;98285.19;;;17.50;32.12
6532;BME280;3299;42.004;24.868;2023-02-21T08:52:26;98271.00;;;17.53;31.13
6532;BME280;3299;42.004;24.868;2023-02-21T08:54:51;98199.03;;;17.31;30.53
6532;BME280;3299;42.004;24.868;2023-02-21T08:57:17;98280.50;;;17.97;30.67
6532;BME280;3299;42.004;24.868;2023-02-21T08:59:43;98238.84;;;17.86;31.06
6532;BME280;3299;42.004;24.868;2023-02-21T09:02:16;98192.50;;;17.78;29.70
6532;BME280;3299;42.004;24.868;2023-02-21T09:04:43;98253.78;;;18.19;30.20
6532;BME280;3299;42.004;24.868;2023-02-21T09:07:11;98279.13;;;18.36;28.99
6532;BME280;3299;42.004;24.868;2023-02-21T09:09:37;98277.81;;;18.40;29.38
6532;BME280;3299;42.004;24.868;2023-02-21T09:12:02;98283.75;;;18.50;27.99
6532;BME280;3299;42.004;24.868;2023-02-21T09:14:32;98196.44;;;18.08;28.80
6532;BME280;3299;42.004;24.868;2023-02-21T09:16:57;98243.19;;;18.28;27.16
6532;BME280;3299;42.004;24.868;2023-02-21T09:19:23;98203.78;;;18.04;26.45
6532;BME280;3299;42.004;24.868;2023-02-21T09:21:48;98282.25;;;18.47;26.53
6532;BME280;3299;42.004;24.868;2023-02-21T09:24:19;98270.94;;;18.39;26.13
6532;BME280;3299;42.004;24.868;2023-02-21T09:26:50;98257.19;;;18.37;26.32
6532;BME280;3299;42.004;24.868;2023-02-21T09:29:20;98251.97;;;18.45;26.08
6532;BME280;3299;42.004;24.868;2023-02-21T09:31:47;98288.09;;;18.75;25.71
6532;BME280;3299;42.004;24.868;2023-02-21T09:34:13;98290.78;;;18.83;25.89
6532;BME280;3299;42.004;24.868;2023-02-21T09:36:39;98219.22;;;18.49;26.00
6532;BME280;3299;42.004;24.868;2023-02-21T09:39:04;98293.75;;;19.04;26.11
6532;BME280;3299;42.004;24.868;2023-02-21T09:41:31;98278.38;;;19.09;26.70
6532;BME280;3299;42.004;24.868;2023-02-21T09:43:57;98282.50;;;19.19;26.55
6532;BME280;3299;42.004;24.868;2023-02-21T09:49:00;98231.16;;;19.01;25.25
6532;BME280;3299;42.004;24.868;2023-02-21T09:51:27;98218.19;;;18.99;25.78
6532;BME280;3299;42.004;24.868;2023-02-21T09:53:55;98177.84;;;18.84;26.09
6532;BME280;3299;42.004;24.868;2023-02-21T09:56:30;98230.72;;;19.21;25.36
6532;BME280;3299;42.004;24.868;2023-02-21T09:58:58;98237.47;;;19.40;26.00
6532;BME280;3299;42.004;24.868;2023-02-21T10:01:41;98257.78;;;19.54;26.15
6532;BME280;3299;42.004;24.868;2023-02-21T10:07:48;98244.63;;;19.62;26.54
6532;BME280;3299;42.004;24.868;2023-02-21T10:09:59;98200.84;;;19.46;26.66
6532;BME280;3299;42.004;24.868;2023-02-21T10:12:40;98231.53;;;19.70;26.63
6532;BME280;3299;42.004;24.868;2023-02-21T10:17:58;98213.78;;;19.72;26.81
6532;BME280;3299;42.004;24.868;2023-02-21T10:20:52;98220.34;;;19.84;26.87
6532;BME280;3299;42.004;24.868;2023-02-21T10:26:00;98134.59;;;19.44;26.07
6532;BME280;3299;42.004;24.868;2023-02-21T10:28:27;98206.53;;;19.90;25.67
6532;BME280;3299;42.004;24.868;2023-02-21T10:31:15;98207.69;;;19.95;26.72
6532;BME280;3299;42.004;24.868;2023-02-21T10:33:42;98161.59;;;19.77;26.37
6532;BME280;3299;42.004;24.868;2023-02-21T10:36:13;98165.31;;;19.98;26.56
6532;BME280;3299;42.004;24.868;2023-02-21T10:38:40;98130.25;;;19.83;26.50
6532;BME280;3299;42.004;24.868;2023-02-21T10:41:07;98182.16;;;20.28;26.92
6532;BME280;3299;42.004;24.868;2023-02-21T10:43:43;98190.47;;;20.39;25.57
6532;BME280;3299;42.004;24.868;2023-02-21T10:48:46;98137.38;;;20.44;25.42
6532;BME280;3299;42.004;24.868;2023-02-21T10:51:27;98116.47;;;20.50;25.69
6532;BME280;3299;42.004;24.868;2023-02-21T10:54:16;98164.41;;;20.83;24.93
6532;BME280;3299;42.004;24.868;2023-02-21T10:56:42;98156.72;;;21.04;24.70
6532;BME280;3299;42.004;24.868;2023-02-21T10:59:08;98160.22;;;21.19;24.62
6532;BME280;3299;42.004;24.868;2023-02-21T11:01:44;98174.88;;;21.36;24.96
6532;BME280;3299;42.004;24.868;2023-02-21T11:06:46;98156.94;;;21.54;24.15
6532;BME280;3299;42.004;24.868;2023-02-21T11:12:25;98148.81;;;21.78;24.13
6532;BME280;3299;42.004;24.868;2023-02-21T11:17:17;98147.09;;;21.99;24.58
6532;BME280;3299;42.004;24.868;2023-02-21T11:30:46;98097.75;;;22.08;23.75
6532;BME280;3299;42.004;24.868;2023-02-21T11:33:19;98087.72;;;22.18;23.66
6532;BME280;3299;42.004;24.868;2023-02-21T11:35:46;98114.25;;;22.31;23.40
6532;BME280;3299;42.004;24.868;2023-02-21T11:40:55;98117.78;;;22.38;23.53
6532;BME280;3299;42.004;24.868;2023-02-21T11:43:24;98132.75;;;22.52;23.54
6532;BME280;3299;42.004;24.868;2023-02-21T11:46:23;98112.50;;;22.52;23.32
6532;BME280;3299;42.004;24.868;2023-02-21T11:51:46;98060.56;;;22.38;23.28
6532;BME280;3299;42.004;24.868;2023-02-21T11:54:13;98045.88;;;22.44;23.51
6532;BME280;3299;42.004;24.868;2023-02-21T11:57:09;98055.97;;;22.61;23.62
6532;BME280;3299;42.004;24.868;2023-02-21T12:05:59;98072.97;;;23.01;23.11
6532;BME280;3299;42.004;24.868;2023-02-21T12:08:56;98087.16;;;23.21;23.00
6532;BME280;3299;42.004;24.868;2023-02-21T12:16:45;98070.75;;;23.53;22.48
6532;BME280;3299;42.004;24.868;2023-02-21T12:27:49;98052.19;;;23.80;21.91
6532;BME280;3299;42.004;24.868;2023-02-21T12:36:48;98043.84;;;23.77;21.41
6532;BME280;3299;42.004;24.868;2023-02-21T12:39:35;98047.09;;;23.78;21.42
6532;BME280;3299;42.004;24.868;2023-02-21T12:42:25;98036.28;;;23.73;21.42
6532;BME280;3299;42.004;24.868;2023-02-21T12:47:35;98029.75;;;23.69;22.12
6532;BME280;3299;42.004;24.868;2023-02-21T12:53:20;98037.22;;;24.00;21.71
6532;BME280;3299;42.004;24.868;2023-02-21T12:56:13;98016.91;;;24.01;21.59
6532;BME280;3299;42.004;24.868;2023-02-21T12:58:50;98023.06;;;24.14;21.87
6532;BME280;3299;42.004;24.868;2023-02-21T13:01:48;98028.34;;;24.14;21.68
6532;BME280;3299;42.004;24.868;2023-02-21T13:09:48;98018.56;;;24.14;22.19
6532;BME280;3299;42.004;24.868;2023-02-21T13:12:22;98019.00;;;24.24;21.63
6532;BME280;3299;42.004;24.868;2023-02-21T13:14:53;98005.19;;;24.35;21.88
6532;BME280;3299;42.004;24.868;2023-02-21T13:17:23;97972.22;;;24.25;21.55
6532;BME280;3299;42.004;24.868;2023-02-21T13:19:58;97932.72;;;23.98;21.86
6532;BME280;3299;42.004;24.868;2023-02-21T13:26:00;98006.81;;;24.36;21.62
6532;BME280;3299;42.004;24.868;2023-02-21T13:28:29;97993.63;;;24.43;21.45
6532;BME280;3299;42.004;24.868;2023-02-21T13:31:04;97948.81;;;24.09;21.13
6532;BME280;3299;42.004;24.868;2023-02-21T13:33:44;97924.91;;;23.70;20.97
6532;BME280;3299;42.004;24.868;2023-02-21T13:36:26;98010.13;;;23.85;21.24
6532;BME280;3299;42.004;24.868;2023-02-21T13:39:12;97996.78;;;23.53;21.38
6532;BME280;3299;42.004;24.868;2023-02-21T13:41:41;97987.31;;;23.31;21.70
6532;BME280;3299;42.004;24.868;2023-02-21T13:49:46;97990.66;;;22.63;22.22
6532;BME280;3299;42.004;24.868;2023-02-21T13:57:51;97971.69;;;22.11;23.00
6532;BME280;3299;42.004;24.868;2023-02-21T14:21:15;97936.63;;;21.25;23.87
6532;BME280;3299;42.004;24.868;2023-02-21T14:37:01;97941.13;;;20.88;24.49
6532;BME280;3299;42.004;24.868;2023-02-21T14:39:34;97942.94;;;20.87;24.64
6532;BME280;3299;42.004;24.868;2023-02-21T14:42:16;97927.25;;;20.65;25.35
6532;BME280;3299;42.004;24.868;2023-02-21T15:01:50;97953.91;;;20.39;25.09
6532;BME280;3299;42.004;24.868;2023-02-21T15:04:28;97910.38;;;20.00;25.74
6532;BME280;3299;42.004;24.868;2023-02-21T15:09:44;97923.69;;;19.98;25.84
6532;BME280;3299;42.004;24.868;2023-02-21T15:12:15;97937.44;;;20.00;26.18
6532;BME280;3299;42.004;24.868;2023-02-21T15:14:49;97945.97;;;20.02;26.18
6532;BME280;3299;42.004;24.868;2023-02-21T15:17:21;97901.44;;;19.64;26.60
6532;BME280;3299;42.004;24.868;2023-02-21T15:20:04;97902.84;;;19.52;27.07
6532;BME280;3299;42.004;24.868;2023-02-21T15:22:31;97939.84;;;19.57;26.77
6532;BME280;3299;42.004;24.868;2023-02-21T15:27:24;97931.63;;;19.29;28.06
6532;BME280;3299;42.004;24.868;2023-02-21T15:30:12;97909.97;;;18.89;28.43
6532;BME280;3299;42.004;24.868;2023-02-21T15:32:38;97897.41;;;18.68;29.15
6532;BME280;3299;42.004;24.868;2023-02-21T15:35:05;97947.81;;;18.86;28.75
6532;BME280;3299;42.004;24.868;2023-02-21T15:37:34;97895.00;;;18.35;29.20
6532;BME280;3299;42.004;24.868;2023-02-21T15:40:07;97949.69;;;18.54;28.04
6532;BME280;3299;42.004;24.868;2023-02-21T15:42:40;97938.22;;;18.39;29.31
6532;BME280;3299;42.004;24.868;2023-02-21T15:45:11;97961.13;;;18.45;28.89
6532;BME280;3299;42.004;24.868;2023-02-21T15:47:41;97950.66;;;18.37;29.54
6532;BME280;3299;42.004;24.868;2023-02-21T15:50:26;97958.53;;;18.53;28.05
6532;BME280;3299;42.004;24.868;2023-02-21T15:52:54;97955.41;;;18.57;28.86
6532;BME280;3299;42.004;24.868;2023-02-21T15:58:13;97950.63;;;18.29;29.93
6532;BME280;3299;42.004;24.868;2023-02-21T16:00:44;97947.19;;;18.20;29.87
6532;BME280;3299;42.004;24.868;2023-02-21T16:06:21;97961.78;;;18.07;29.90
6532;BME280;3299;42.004;24.868;2023-02-21T16:09:04;97964.03;;;18.10;29.02
6532;BME280;3299;42.004;24.868;2023-02-21T16:11:51;97969.63;;;18.15;29.52
6532;BME280;3299;42.004;24.868;2023-02-21T16:19:30;97966.00;;;18.00;30.07
6532;BME280;3299;42.004;24.868;2023-02-21T16:24:44;97933.28;;;17.96;29.54
6532;BME280;3299;42.004;24.868;2023-02-21T16:27:12;97927.22;;;17.95;28.34
6532;BME280;3299;42.004;24.868;2023-02-21T16:29:38;97941.31;;;18.10;28.24
6532;BME280;3299;42.004;24.868;2023-02-21T16:32:04;97945.22;;;18.06;28.71
6532;BME280;3299;42.004;24.868;2023-02-21T16:34:33;97975.84;;;18.14;28.92
6532;BME280;3299;42.004;24.868;2023-02-21T16:37:04;97938.84;;;18.01;28.19
6532;BME280;3299;42.004;24.868;2023-02-21T16:39:30;97953.41;;;18.11;28.09
6532;BME280;3299;42.004;24.868;2023-02-21T16:41:56;98001.41;;;18.44;28.29
6532;BME280;3299;42.004;24.868;2023-02-21T16:44:22;98003.22;;;18.35;29.31
6532;BME280;3299;42.004;24.868;2023-02-21T16:46:49;97969.28;;;18.10;29.22
6532;BME280;3299;42.004;24.868;2023-02-21T16:49:15;97987.28;;;18.05;29.27
6532;BME280;3299;42.004;24.868;2023-02-21T16:51:41;97991.53;;;18.06;29.03